< < Back
Terminal Aerodrome Forecast


Current Version              Previous Versions:   1  2  3  4  5  6  7  8  9  

Terminal Aerodrome Forecast

643
FTUS42 KJAX 201100
TAFJAX
TAF
KJAX 201120Z 2012/2112 35010KT P6SM -DZ SCT010 BKN015 OVC025
      TEMPO 2012/2016 OVC006
     FM201600 36013G25KT P6SM SCT010 BKN015
     FM210000 01010KT P6SM SCT015 BKN025
     FM210700 36007KT P6SM SCT010 BKN020=



Latest METAR

752
SAUS80 KWBC 210200 RRA
MTRJAX
METAR KJAX 210156Z 31003KT 10SM BKN032 OVC044 15/14 A3011 RMK AO2 SLP197
T01500139


USA.gov is the U.S. government's official web portal to all federal, state and local government web resources and services.